sensor_id;sensor_type;location;lat;lon;timestamp;P1;durP1;ratioP1;P2;durP2;ratioP2
70715;SDS011;59053;50.832;12.882;2022-09-17T00:00:22;2.85;;;1.50;;
70715;SDS011;59053;50.832;12.882;2022-09-17T00:02:51;7.27;;;1.83;;
70715;SDS011;59053;50.832;12.882;2022-09-17T00:05:19;5.20;;;1.70;;
70715;SDS011;59053;50.832;12.882;2022-09-17T00:07:46;3.92;;;1.75;;
70715;SDS011;59053;50.832;12.882;2022-09-17T00:10:11;9.17;;;1.87;;
70715;SDS011;59053;50.832;12.882;2022-09-17T00:12:37;5.90;;;1.60;;
70715;SDS011;59053;50.832;12.882;2022-09-17T00:15:02;5.10;;;1.83;;
70715;SDS011;59053;50.832;12.882;2022-09-17T00:17:28;3.53;;;1.63;;
70715;SDS011;59053;50.832;12.882;2022-09-17T00:19:53;3.40;;;1.70;;
70715;SDS011;59053;50.832;12.882;2022-09-17T00:22:18;4.10;;;1.80;;
70715;SDS011;59053;50.832;12.882;2022-09-17T00:24:44;3.87;;;1.57;;
70715;SDS011;59053;50.832;12.882;2022-09-17T00:27:09;5.07;;;1.60;;
70715;SDS011;59053;50.832;12.882;2022-09-17T00:29:34;4.83;;;1.53;;
70715;SDS011;59053;50.832;12.882;2022-09-17T00:32:00;3.67;;;1.53;;
70715;SDS011;59053;50.832;12.882;2022-09-17T00:34:25;3.70;;;1.70;;
70715;SDS011;59053;50.832;12.882;2022-09-17T00:36:51;5.40;;;1.77;;
70715;SDS011;59053;50.832;12.882;2022-09-17T00:39:24;5.83;;;1.63;;
70715;SDS011;59053;50.832;12.882;2022-09-17T00:41:49;4.35;;;1.58;;
70715;SDS011;59053;50.832;12.882;2022-09-17T00:47:20;3.53;;;1.50;;
70715;SDS011;59053;50.832;12.882;2022-09-17T00:49:53;3.42;;;1.63;;
70715;SDS011;59053;50.832;12.882;2022-09-17T00:52:25;4.30;;;1.50;;
70715;SDS011;59053;50.832;12.882;2022-09-17T00:54:57;5.00;;;1.53;;
70715;SDS011;59053;50.832;12.882;2022-09-17T01:00:50;4.57;;;1.55;;
70715;SDS011;59053;50.832;12.882;2022-09-17T01:03:15;4.67;;;1.33;;
70715;SDS011;59053;50.832;12.882;2022-09-17T01:05:43;4.80;;;1.48;;
70715;SDS011;59053;50.832;12.882;2022-09-17T01:08:15;6.63;;;1.60;;
70715;SDS011;59053;50.832;12.882;2022-09-17T01:16:47;5.50;;;1.40;;
70715;SDS011;59053;50.832;12.882;2022-09-17T01:23:07;3.40;;;1.30;;
70715;SDS011;59053;50.832;12.882;2022-09-17T01:25:19;2.47;;;1.20;;
70715;SDS011;59053;50.832;12.882;2022-09-17T01:28:21;4.03;;;1.40;;
70715;SDS011;59053;50.832;12.882;2022-09-17T01:33:25;5.07;;;1.40;;
70715;SDS011;59053;50.832;12.882;2022-09-17T01:39:23;3.63;;;1.30;;
70715;SDS011;59053;50.832;12.882;2022-09-17T01:47:05;4.30;;;1.33;;
70715;SDS011;59053;50.832;12.882;2022-09-17T01:49:34;4.22;;;1.33;;
70715;SDS011;59053;50.832;12.882;2022-09-17T01:52:01;4.40;;;1.50;;
70715;SDS011;59053;50.832;12.882;2022-09-17T01:54:34;6.27;;;1.67;;
70715;SDS011;59053;50.832;12.882;2022-09-17T01:57:06;2.95;;;1.27;;
70715;SDS011;59053;50.832;12.882;2022-09-17T01:59:43;5.80;;;1.60;;
70715;SDS011;59053;50.832;12.882;2022-09-17T02:05:24;4.37;;;1.60;;
70715;SDS011;59053;50.832;12.882;2022-09-17T02:08:14;2.50;;;1.40;;
70715;SDS011;59053;50.832;12.882;2022-09-17T02:10:43;4.95;;;1.40;;
70715;SDS011;59053;50.832;12.882;2022-09-17T02:13:12;4.10;;;1.40;;
70715;SDS011;59053;50.832;12.882;2022-09-17T02:15:43;7.20;;;1.83;;
70715;SDS011;59053;50.832;12.882;2022-09-17T02:21:24;4.72;;;1.50;;
70715;SDS011;59053;50.832;12.882;2022-09-17T02:24:11;5.05;;;1.40;;
70715;SDS011;59053;50.832;12.882;2022-09-17T02:26:47;6.03;;;1.63;;
70715;SDS011;59053;50.832;12.882;2022-09-17T02:29:45;5.32;;;1.60;;
70715;SDS011;59053;50.832;12.882;2022-09-17T02:32:11;3.37;;;1.30;;
70715;SDS011;59053;50.832;12.882;2022-09-17T02:34:37;5.07;;;1.50;;
70715;SDS011;59053;50.832;12.882;2022-09-17T02:37:03;3.55;;;1.50;;
70715;SDS011;59053;50.832;12.882;2022-09-17T02:39:30;5.15;;;1.65;;
70715;SDS011;59053;50.832;12.882;2022-09-17T02:45:05;4.03;;;1.60;;
70715;SDS011;59053;50.832;12.882;2022-09-17T02:47:52;6.07;;;1.90;;
70715;SDS011;59053;50.832;12.882;2022-09-17T02:50:46;5.53;;;2.10;;
70715;SDS011;59053;50.832;12.882;2022-09-17T02:59:28;4.65;;;2.30;;
70715;SDS011;59053;50.832;12.882;2022-09-17T03:01:59;5.82;;;2.50;;
70715;SDS011;59053;50.832;12.882;2022-09-17T03:04:27;6.45;;;2.20;;
70715;SDS011;59053;50.832;12.882;2022-09-17T03:06:53;5.30;;;2.23;;
70715;SDS011;59053;50.832;12.882;2022-09-17T03:09:19;8.93;;;2.60;;
70715;SDS011;59053;50.832;12.882;2022-09-17T03:11:44;6.47;;;2.70;;
70715;SDS011;59053;50.832;12.882;2022-09-17T03:14:10;7.90;;;3.17;;
70715;SDS011;59053;50.832;12.882;2022-09-17T03:16:35;6.37;;;2.77;;
70715;SDS011;59053;50.832;12.882;2022-09-17T03:19:00;8.47;;;3.03;;
70715;SDS011;59053;50.832;12.882;2022-09-17T03:21:41;8.23;;;3.00;;
70715;SDS011;59053;50.832;12.882;2022-09-17T03:24:07;10.52;;;3.20;;
70715;SDS011;59053;50.832;12.882;2022-09-17T03:26:32;8.50;;;3.33;;
70715;SDS011;59053;50.832;12.882;2022-09-17T03:28:57;8.13;;;3.30;;
70715;SDS011;59053;50.832;12.882;2022-09-17T03:31:23;7.10;;;3.30;;
70715;SDS011;59053;50.832;12.882;2022-09-17T03:33:48;11.10;;;3.30;;
70715;SDS011;59053;50.832;12.882;2022-09-17T03:36:14;10.93;;;3.70;;
70715;SDS011;59053;50.832;12.882;2022-09-17T03:38:39;8.97;;;3.63;;
70715;SDS011;59053;50.832;12.882;2022-09-17T03:41:05;10.32;;;3.97;;
70715;SDS011;59053;50.832;12.882;2022-09-17T03:43:33;9.33;;;3.77;;
70715;SDS011;59053;50.832;12.882;2022-09-17T03:45:58;8.73;;;4.20;;
70715;SDS011;59053;50.832;12.882;2022-09-17T03:48:24;10.27;;;4.10;;
70715;SDS011;59053;50.832;12.882;2022-09-17T03:50:50;8.57;;;4.00;;
70715;SDS011;59053;50.832;12.882;2022-09-17T03:53:15;10.07;;;4.20;;
70715;SDS011;59053;50.832;12.882;2022-09-17T03:55:41;8.77;;;4.27;;
70715;SDS011;59053;50.832;12.882;2022-09-17T03:58:06;8.53;;;4.23;;
70715;SDS011;59053;50.832;12.882;2022-09-17T04:00:32;8.68;;;4.30;;
70715;SDS011;59053;50.832;12.882;2022-09-17T04:02:57;11.90;;;4.53;;
70715;SDS011;59053;50.832;12.882;2022-09-17T04:05:23;11.03;;;4.47;;
70715;SDS011;59053;50.832;12.882;2022-09-17T04:07:48;11.47;;;4.70;;
70715;SDS011;59053;50.832;12.882;2022-09-17T04:10:14;11.33;;;4.60;;
70715;SDS011;59053;50.832;12.882;2022-09-17T04:12:39;15.00;;;4.60;;
70715;SDS011;59053;50.832;12.882;2022-09-17T04:15:05;9.82;;;4.38;;
70715;SDS011;59053;50.832;12.882;2022-09-17T04:17:31;10.50;;;4.50;;
70715;SDS011;59053;50.832;12.882;2022-09-17T04:19:56;12.15;;;4.60;;
70715;SDS011;59053;50.832;12.882;2022-09-17T04:22:22;11.47;;;4.43;;
70715;SDS011;59053;50.832;12.882;2022-09-17T04:24:48;10.48;;;5.13;;
70715;SDS011;59053;50.832;12.882;2022-09-17T04:27:13;14.30;;;5.40;;
70715;SDS011;59053;50.832;12.882;2022-09-17T04:29:39;12.73;;;5.37;;
70715;SDS011;59053;50.832;12.882;2022-09-17T04:32:04;15.73;;;5.30;;
70715;SDS011;59053;50.832;12.882;2022-09-17T04:34:29;9.73;;;5.13;;
70715;SDS011;59053;50.832;12.882;2022-09-17T04:36:56;9.80;;;4.57;;
70715;SDS011;59053;50.832;12.882;2022-09-17T04:39:21;9.57;;;4.87;;
70715;SDS011;59053;50.832;12.882;2022-09-17T04:41:46;9.73;;;4.87;;
70715;SDS011;59053;50.832;12.882;2022-09-17T04:44:12;9.90;;;4.40;;
70715;SDS011;59053;50.832;12.882;2022-09-17T04:46:37;9.60;;;4.20;;
70715;SDS011;59053;50.832;12.882;2022-09-17T04:49:02;12.10;;;4.57;;
70715;SDS011;59053;50.832;12.882;2022-09-17T04:51:28;8.13;;;4.00;;
70715;SDS011;59053;50.832;12.882;2022-09-17T04:53:53;7.97;;;3.90;;
70715;SDS011;59053;50.832;12.882;2022-09-17T04:56:18;8.17;;;3.83;;
70715;SDS011;59053;50.832;12.882;2022-09-17T04:58:44;8.82;;;3.88;;
70715;SDS011;59053;50.832;12.882;2022-09-17T05:01:10;7.97;;;3.73;;
70715;SDS011;59053;50.832;12.882;2022-09-17T05:03:35;12.30;;;4.00;;
70715;SDS011;59053;50.832;12.882;2022-09-17T05:06:00;7.53;;;3.55;;
70715;SDS011;59053;50.832;12.882;2022-09-17T05:08:26;8.20;;;3.40;;
70715;SDS011;59053;50.832;12.882;2022-09-17T05:10:51;8.13;;;2.93;;
70715;SDS011;59053;50.832;12.882;2022-09-17T05:13:17;8.27;;;3.33;;
70715;SDS011;59053;50.832;12.882;2022-09-17T05:15:42;8.18;;;3.30;;
70715;SDS011;59053;50.832;12.882;2022-09-17T05:18:08;5.55;;;3.08;;
70715;SDS011;59053;50.832;12.882;2022-09-17T05:20:34;6.90;;;2.97;;
70715;SDS011;59053;50.832;12.882;2022-09-17T05:22:59;7.10;;;3.00;;
70715;SDS011;59053;50.832;12.882;2022-09-17T05:25:25;5.83;;;2.87;;
70715;SDS011;59053;50.832;12.882;2022-09-17T05:27:51;6.33;;;2.70;;
70715;SDS011;59053;50.832;12.882;2022-09-17T05:30:16;7.57;;;2.90;;
70715;SDS011;59053;50.832;12.882;2022-09-17T05:32:42;5.40;;;2.43;;
70715;SDS011;59053;50.832;12.882;2022-09-17T05:35:07;6.17;;;2.70;;
70715;SDS011;59053;50.832;12.882;2022-09-17T05:37:33;3.83;;;1.95;;
70715;SDS011;59053;50.832;12.882;2022-09-17T05:39:59;5.47;;;2.33;;
70715;SDS011;59053;50.832;12.882;2022-09-17T05:42:24;6.13;;;2.83;;
70715;SDS011;59053;50.832;12.882;2022-09-17T05:44:52;8.17;;;3.07;;
70715;SDS011;59053;50.832;12.882;2022-09-17T05:47:17;7.67;;;3.10;;
70715;SDS011;59053;50.832;12.882;2022-09-17T05:49:42;8.00;;;3.27;;
70715;SDS011;59053;50.832;12.882;2022-09-17T05:52:08;8.60;;;3.40;;
70715;SDS011;59053;50.832;12.882;2022-09-17T05:54:33;7.37;;;3.10;;
70715;SDS011;59053;50.832;12.882;2022-09-17T05:56:58;8.20;;;3.27;;
70715;SDS011;59053;50.832;12.882;2022-09-17T05:59:24;7.07;;;3.30;;
70715;SDS011;59053;50.832;12.882;2022-09-17T06:01:49;10.27;;;3.55;;
70715;SDS011;59053;50.832;12.882;2022-09-17T06:04:15;9.00;;;3.67;;
70715;SDS011;59053;50.832;12.882;2022-09-17T06:06:41;7.57;;;2.95;;
70715;SDS011;59053;50.832;12.882;2022-09-17T06:09:07;7.63;;;3.10;;
70715;SDS011;59053;50.832;12.882;2022-09-17T06:11:33;6.30;;;2.50;;
70715;SDS011;59053;50.832;12.882;2022-09-17T06:13:58;3.63;;;1.90;;
70715;SDS011;59053;50.832;12.882;2022-09-17T06:16:24;3.83;;;1.77;;
70715;SDS011;59053;50.832;12.882;2022-09-17T06:18:50;3.73;;;1.80;;
70715;SDS011;59053;50.832;12.882;2022-09-17T06:21:17;3.13;;;1.48;;
70715;SDS011;59053;50.832;12.882;2022-09-17T06:23:45;2.63;;;1.13;;
70715;SDS011;59053;50.832;12.882;2022-09-17T06:26:10;3.63;;;1.20;;
70715;SDS011;59053;50.832;12.882;2022-09-17T06:28:36;2.80;;;1.13;;
70715;SDS011;59053;50.832;12.882;2022-09-17T06:31:03;1.93;;;1.00;;
70715;SDS011;59053;50.832;12.882;2022-09-17T06:33:31;1.95;;;0.95;;
70715;SDS011;59053;50.832;12.882;2022-09-17T06:36:00;2.63;;;1.20;;
70715;SDS011;59053;50.832;12.882;2022-09-17T06:38:27;2.58;;;1.10;;
70715;SDS011;59053;50.832;12.882;2022-09-17T06:40:53;3.08;;;1.20;;
70715;SDS011;59053;50.832;12.882;2022-09-17T06:43:19;3.67;;;1.10;;
70715;SDS011;59053;50.832;12.882;2022-09-17T06:45:55;2.22;;;1.25;;
70715;SDS011;59053;50.832;12.882;2022-09-17T06:48:22;5.18;;;1.58;;
70715;SDS011;59053;50.832;12.882;2022-09-17T06:50:48;5.22;;;1.52;;
70715;SDS011;59053;50.832;12.882;2022-09-17T06:53:14;4.57;;;1.20;;
70715;SDS011;59053;50.832;12.882;2022-09-17T06:55:40;4.43;;;1.55;;
70715;SDS011;59053;50.832;12.882;2022-09-17T06:58:06;4.07;;;1.50;;
70715;SDS011;59053;50.832;12.882;2022-09-17T07:00:31;8.47;;;1.57;;
70715;SDS011;59053;50.832;12.882;2022-09-17T07:02:59;4.15;;;1.40;;
70715;SDS011;59053;50.832;12.882;2022-09-17T07:05:25;6.77;;;1.63;;
70715;SDS011;59053;50.832;12.882;2022-09-17T07:07:52;6.95;;;1.67;;
70715;SDS011;59053;50.832;12.882;2022-09-17T07:10:18;7.78;;;1.35;;
70715;SDS011;59053;50.832;12.882;2022-09-17T07:12:43;7.55;;;2.10;;
70715;SDS011;59053;50.832;12.882;2022-09-17T07:15:09;5.97;;;2.00;;
70715;SDS011;59053;50.832;12.882;2022-09-17T07:17:40;7.80;;;1.88;;
70715;SDS011;59053;50.832;12.882;2022-09-17T07:20:06;8.47;;;2.20;;
70715;SDS011;59053;50.832;12.882;2022-09-17T07:22:32;4.40;;;1.85;;
70715;SDS011;59053;50.832;12.882;2022-09-17T07:24:58;4.35;;;1.35;;
70715;SDS011;59053;50.832;12.882;2022-09-17T07:27:26;5.73;;;2.03;;
70715;SDS011;59053;50.832;12.882;2022-09-17T07:29:51;10.63;;;2.58;;
70715;SDS011;59053;50.832;12.882;2022-09-17T07:32:17;10.73;;;2.20;;
70715;SDS011;59053;50.832;12.882;2022-09-17T07:34:42;10.87;;;2.03;;
70715;SDS011;59053;50.832;12.882;2022-09-17T07:37:08;8.30;;;2.00;;
70715;SDS011;59053;50.832;12.882;2022-09-17T07:39:33;8.43;;;2.07;;
70715;SDS011;59053;50.832;12.882;2022-09-17T07:41:59;7.25;;;2.00;;
70715;SDS011;59053;50.832;12.882;2022-09-17T07:44:24;6.27;;;2.00;;
70715;SDS011;59053;50.832;12.882;2022-09-17T07:46:50;6.57;;;1.70;;
70715;SDS011;59053;50.832;12.882;2022-09-17T07:49:15;9.87;;;2.07;;
70715;SDS011;59053;50.832;12.882;2022-09-17T07:51:41;4.47;;;1.30;;
70715;SDS011;59053;50.832;12.882;2022-09-17T07:54:06;9.73;;;2.43;;
70715;SDS011;59053;50.832;12.882;2022-09-17T07:56:32;7.47;;;2.00;;
70715;SDS011;59053;50.832;12.882;2022-09-17T07:58:57;9.37;;;2.30;;
70715;SDS011;59053;50.832;12.882;2022-09-17T08:01:22;7.63;;;1.77;;
70715;SDS011;59053;50.832;12.882;2022-09-17T08:03:51;6.73;;;2.00;;
70715;SDS011;59053;50.832;12.882;2022-09-17T08:06:18;12.53;;;2.00;;
70715;SDS011;59053;50.832;12.882;2022-09-17T08:11:20;7.80;;;1.70;;
70715;SDS011;59053;50.832;12.882;2022-09-17T08:13:49;7.30;;;1.95;;
70715;SDS011;59053;50.832;12.882;2022-09-17T08:16:15;7.80;;;1.80;;
70715;SDS011;59053;50.832;12.882;2022-09-17T08:18:42;5.80;;;1.73;;
70715;SDS011;59053;50.832;12.882;2022-09-17T08:21:08;5.57;;;1.63;;
70715;SDS011;59053;50.832;12.882;2022-09-17T08:23:35;9.40;;;2.80;;
70715;SDS011;59053;50.832;12.882;2022-09-17T08:26:12;7.73;;;1.80;;
70715;SDS011;59053;50.832;12.882;2022-09-17T08:28:45;6.57;;;1.52;;
70715;SDS011;59053;50.832;12.882;2022-09-17T08:31:13;6.20;;;1.52;;
70715;SDS011;59053;50.832;12.882;2022-09-17T08:33:39;9.53;;;1.83;;
70715;SDS011;59053;50.832;12.882;2022-09-17T08:36:07;9.05;;;1.45;;
70715;SDS011;59053;50.832;12.882;2022-09-17T08:38:36;6.25;;;1.30;;
70715;SDS011;59053;50.832;12.882;2022-09-17T08:43:39;5.80;;;1.55;;
70715;SDS011;59053;50.832;12.882;2022-09-17T08:46:08;5.60;;;1.43;;
70715;SDS011;59053;50.832;12.882;2022-09-17T08:48:36;8.68;;;1.15;;
70715;SDS011;59053;50.832;12.882;2022-09-17T08:51:10;7.93;;;1.38;;
70715;SDS011;59053;50.832;12.882;2022-09-17T09:00:00;5.40;;;1.10;;
70715;SDS011;59053;50.832;12.882;2022-09-17T09:05:14;7.93;;;1.85;;
70715;SDS011;59053;50.832;12.882;2022-09-17T09:07:51;6.93;;;1.60;;
70715;SDS011;59053;50.832;12.882;2022-09-17T09:10:21;8.05;;;1.45;;
70715;SDS011;59053;50.832;12.882;2022-09-17T09:12:50;4.73;;;1.20;;
70715;SDS011;59053;50.832;12.882;2022-09-17T09:15:24;8.98;;;1.25;;
70715;SDS011;59053;50.832;12.882;2022-09-17T09:17:54;4.68;;;1.08;;
70715;SDS011;59053;50.832;12.882;2022-09-17T09:23:17;6.75;;;1.10;;
70715;SDS011;59053;50.832;12.882;2022-09-17T09:26:07;8.50;;;1.20;;
70715;SDS011;59053;50.832;12.882;2022-09-17T09:33:53;3.88;;;1.13;;
70715;SDS011;59053;50.832;12.882;2022-09-17T09:36:19;9.32;;;1.17;;
70715;SDS011;59053;50.832;12.882;2022-09-17T09:38:53;5.43;;;1.10;;
70715;SDS011;59053;50.832;12.882;2022-09-17T09:41:26;7.82;;;1.50;;
70715;SDS011;59053;50.832;12.882;2022-09-17T09:44:03;3.92;;;0.82;;
70715;SDS011;59053;50.832;12.882;2022-09-17T09:52:06;4.90;;;0.90;;
70715;SDS011;59053;50.832;12.882;2022-09-17T09:55:03;4.85;;;0.90;;
70715;SDS011;59053;50.832;12.882;2022-09-17T09:57:54;4.50;;;1.10;;
70715;SDS011;59053;50.832;12.882;2022-09-17T10:00:36;8.63;;;1.33;;
70715;SDS011;59053;50.832;12.882;2022-09-17T10:03:51;3.83;;;1.30;;
70715;SDS011;59053;50.832;12.882;2022-09-17T10:06:19;9.13;;;1.60;;
70715;SDS011;59053;50.832;12.882;2022-09-17T10:11:23;5.88;;;1.30;;
70715;SDS011;59053;50.832;12.882;2022-09-17T10:13:53;10.85;;;1.60;;
70715;SDS011;59053;50.832;12.882;2022-09-17T10:16:38;7.53;;;1.33;;
70715;SDS011;59053;50.832;12.882;2022-09-17T10:21:41;8.77;;;1.40;;
70715;SDS011;59053;50.832;12.882;2022-09-17T10:24:21;10.75;;;1.50;;
70715;SDS011;59053;50.832;12.882;2022-09-17T10:26:49;9.57;;;1.48;;
70715;SDS011;59053;50.832;12.882;2022-09-17T10:29:15;7.38;;;1.38;;
70715;SDS011;59053;50.832;12.882;2022-09-17T10:31:54;6.53;;;1.23;;
70715;SDS011;59053;50.832;12.882;2022-09-17T10:34:21;5.72;;;1.00;;
70715;SDS011;59053;50.832;12.882;2022-09-17T10:36:50;6.13;;;1.20;;
70715;SDS011;59053;50.832;12.882;2022-09-17T10:41:53;3.53;;;0.80;;
70715;SDS011;59053;50.832;12.882;2022-09-17T10:44:21;3.40;;;0.73;;
70715;SDS011;59053;50.832;12.882;2022-09-17T10:46:47;2.50;;;0.63;;
70715;SDS011;59053;50.832;12.882;2022-09-17T10:54:57;6.47;;;1.50;;
70715;SDS011;59053;50.832;12.882;2022-09-17T11:00:17;8.53;;;1.27;;
70715;SDS011;59053;50.832;12.882;2022-09-17T11:08:07;7.05;;;1.10;;
70715;SDS011;59053;50.832;12.882;2022-09-17T11:10:44;5.55;;;1.00;;
70715;SDS011;59053;50.832;12.882;2022-09-17T11:13:28;8.80;;;1.30;;
70715;SDS011;59053;50.832;12.882;2022-09-17T11:19:44;6.05;;;0.85;;
70715;SDS011;59053;50.832;12.882;2022-09-17T11:22:29;4.13;;;0.95;;
70715;SDS011;59053;50.832;12.882;2022-09-17T11:28:28;4.07;;;0.90;;
70715;SDS011;59053;50.832;12.882;2022-09-17T11:36:59;9.50;;;1.00;;
70715;SDS011;59053;50.832;12.882;2022-09-17T11:42:18;5.45;;;1.10;;
70715;SDS011;59053;50.832;12.882;2022-09-17T11:44:48;4.17;;;1.10;;
70715;SDS011;59053;50.832;12.882;2022-09-17T11:47:28;6.20;;;1.10;;
70715;SDS011;59053;50.832;12.882;2022-09-17T11:50:02;4.10;;;1.00;;
70715;SDS011;59053;50.832;12.882;2022-09-17T11:55:52;6.28;;;1.10;;
70715;SDS011;59053;50.832;12.882;2022-09-17T11:58:31;8.47;;;1.20;;
70715;SDS011;59053;50.832;12.882;2022-09-17T12:39:59;5.18;;;1.15;;
70715;SDS011;59053;50.832;12.882;2022-09-17T12:52:29;7.03;;;1.20;;
70715;SDS011;59053;50.832;12.882;2022-09-17T12:58:06;8.05;;;1.33;;
70715;SDS011;59053;50.832;12.882;2022-09-17T13:25:58;4.45;;;1.45;;
70715;SDS011;59053;50.832;12.882;2022-09-17T13:28:35;6.35;;;1.08;;
70715;SDS011;59053;50.832;12.882;2022-09-17T13:31:05;5.47;;;1.10;;
70715;SDS011;59053;50.832;12.882;2022-09-17T13:42:27;6.75;;;1.15;;
70715;SDS011;59053;50.832;12.882;2022-09-17T13:45:10;5.03;;;1.00;;
70715;SDS011;59053;50.832;12.882;2022-09-17T13:50:52;3.80;;;0.90;;
70715;SDS011;59053;50.832;12.882;2022-09-17T13:53:25;6.50;;;0.90;;
70715;SDS011;59053;50.832;12.882;2022-09-17T13:55:57;4.65;;;1.10;;
70715;SDS011;59053;50.832;12.882;2022-09-17T13:58:26;5.53;;;1.00;;
70715;SDS011;59053;50.832;12.882;2022-09-17T14:00:56;4.57;;;1.00;;
70715;SDS011;59053;50.832;12.882;2022-09-17T14:06:52;8.35;;;1.10;;
70715;SDS011;59053;50.832;12.882;2022-09-17T14:33:35;3.35;;;0.80;;
70715;SDS011;59053;50.832;12.882;2022-09-17T14:36:07;4.37;;;0.93;;
70715;SDS011;59053;50.832;12.882;2022-09-17T14:38:41;4.47;;;0.80;;
70715;SDS011;59053;50.832;12.882;2022-09-17T14:41:24;4.72;;;0.80;;
70715;SDS011;59053;50.832;12.882;2022-09-17T14:43:55;5.00;;;0.88;;
70715;SDS011;59053;50.832;12.882;2022-09-17T14:46:46;3.20;;;0.70;;
70715;SDS011;59053;50.832;12.882;2022-09-17T14:49:24;4.07;;;0.90;;
70715;SDS011;59053;50.832;12.882;2022-09-17T14:51:51;4.60;;;0.93;;
70715;SDS011;59053;50.832;12.882;2022-09-17T14:54:32;4.82;;;1.23;;
70715;SDS011;59053;50.832;12.882;2022-09-17T15:10:46;4.32;;;0.85;;
70715;SDS011;59053;50.832;12.882;2022-09-17T15:13:14;4.07;;;1.08;;
70715;SDS011;59053;50.832;12.882;2022-09-17T15:15:49;5.37;;;0.70;;
70715;SDS011;59053;50.832;12.882;2022-09-17T15:18:16;6.18;;;1.40;;
70715;SDS011;59053;50.832;12.882;2022-09-17T15:20:42;6.30;;;1.17;;
70715;SDS011;59053;50.832;12.882;2022-09-17T15:23:13;4.47;;;0.90;;
70715;SDS011;59053;50.832;12.882;2022-09-17T15:25:41;2.40;;;1.00;;
70715;SDS011;59053;50.832;12.882;2022-09-17T15:31:17;5.90;;;1.23;;
70715;SDS011;59053;50.832;12.882;2022-09-17T15:33:51;4.65;;;1.27;;
70715;SDS011;59053;50.832;12.882;2022-09-17T15:36:23;5.47;;;1.25;;
70715;SDS011;59053;50.832;12.882;2022-09-17T15:41:55;4.60;;;1.10;;
70715;SDS011;59053;50.832;12.882;2022-09-17T15:51:33;4.93;;;0.95;;
70715;SDS011;59053;50.832;12.882;2022-09-17T15:54:00;5.63;;;0.95;;
70715;SDS011;59053;50.832;12.882;2022-09-17T16:04:39;5.88;;;0.75;;
70715;SDS011;59053;50.832;12.882;2022-09-17T16:09:47;7.43;;;1.90;;
70715;SDS011;59053;50.832;12.882;2022-09-17T16:15:00;4.17;;;1.63;;
70715;SDS011;59053;50.832;12.882;2022-09-17T16:17:42;7.25;;;1.65;;
70715;SDS011;59053;50.832;12.882;2022-09-17T16:20:18;14.30;;;4.32;;
70715;SDS011;59053;50.832;12.882;2022-09-17T16:22:47;28.37;;;10.43;;
70715;SDS011;59053;50.832;12.882;2022-09-17T16:25:13;12.70;;;4.95;;
70715;SDS011;59053;50.832;12.882;2022-09-17T16:27:48;6.40;;;1.40;;
70715;SDS011;59053;50.832;12.882;2022-09-17T16:30:40;5.85;;;2.53;;
70715;SDS011;59053;50.832;12.882;2022-09-17T16:33:12;2.80;;;0.70;;
70715;SDS011;59053;50.832;12.882;2022-09-17T16:36:24;5.05;;;1.80;;
70715;SDS011;59053;50.832;12.882;2022-09-17T16:41:52;2.70;;;1.20;;
70715;SDS011;59053;50.832;12.882;2022-09-17T16:44:17;3.03;;;1.08;;
70715;SDS011;59053;50.832;12.882;2022-09-17T16:46:43;2.07;;;0.80;;
70715;SDS011;59053;50.832;12.882;2022-09-17T16:49:09;1.83;;;0.80;;
70715;SDS011;59053;50.832;12.882;2022-09-17T16:51:34;4.38;;;0.60;;
70715;SDS011;59053;50.832;12.882;2022-09-17T16:56:36;5.43;;;0.70;;
70715;SDS011;59053;50.832;12.882;2022-09-17T17:02:18;1.52;;;0.63;;
70715;SDS011;59053;50.832;12.882;2022-09-17T17:13:25;1.27;;;0.57;;
70715;SDS011;59053;50.832;12.882;2022-09-17T17:15:51;1.30;;;0.60;;
70715;SDS011;59053;50.832;12.882;2022-09-17T17:18:19;9.15;;;3.78;;
70715;SDS011;59053;50.832;12.882;2022-09-17T17:20:51;4.75;;;0.73;;
70715;SDS011;59053;50.832;12.882;2022-09-17T17:23:16;4.37;;;1.07;;
70715;SDS011;59053;50.832;12.882;2022-09-17T17:26:00;2.30;;;0.60;;
70715;SDS011;59053;50.832;12.882;2022-09-17T17:28:26;2.93;;;0.80;;
70715;SDS011;59053;50.832;12.882;2022-09-17T17:30:51;1.70;;;0.63;;
70715;SDS011;59053;50.832;12.882;2022-09-17T17:33:16;2.37;;;0.80;;
70715;SDS011;59053;50.832;12.882;2022-09-17T17:35:42;4.27;;;1.00;;
70715;SDS011;59053;50.832;12.882;2022-09-17T17:38:09;2.13;;;0.70;;
70715;SDS011;59053;50.832;12.882;2022-09-17T17:40:35;1.30;;;0.60;;
70715;SDS011;59053;50.832;12.882;2022-09-17T17:43:01;1.50;;;0.70;;
70715;SDS011;59053;50.832;12.882;2022-09-17T17:45:26;1.83;;;0.80;;
70715;SDS011;59053;50.832;12.882;2022-09-17T17:47:52;1.52;;;0.68;;
70715;SDS011;59053;50.832;12.882;2022-09-17T17:50:17;3.00;;;0.80;;
70715;SDS011;59053;50.832;12.882;2022-09-17T17:52:55;2.20;;;0.93;;
70715;SDS011;59053;50.832;12.882;2022-09-17T17:55:20;1.93;;;0.80;;
70715;SDS011;59053;50.832;12.882;2022-09-17T17:57:46;3.17;;;0.98;;
70715;SDS011;59053;50.832;12.882;2022-09-17T18:00:13;3.03;;;1.17;;
70715;SDS011;59053;50.832;12.882;2022-09-17T18:02:40;3.10;;;1.23;;
70715;SDS011;59053;50.832;12.882;2022-09-17T18:05:05;4.00;;;1.33;;
70715;SDS011;59053;50.832;12.882;2022-09-17T18:07:31;3.70;;;1.50;;
70715;SDS011;59053;50.832;12.882;2022-09-17T18:09:57;3.53;;;1.35;;
70715;SDS011;59053;50.832;12.882;2022-09-17T18:12:22;2.97;;;1.30;;
70715;SDS011;59053;50.832;12.882;2022-09-17T18:20:58;4.45;;;1.42;;
70715;SDS011;59053;50.832;12.882;2022-09-17T18:23:24;4.38;;;1.77;;
70715;SDS011;59053;50.832;12.882;2022-09-17T18:25:56;5.47;;;1.67;;
70715;SDS011;59053;50.832;12.882;2022-09-17T18:28:24;5.55;;;1.65;;
70715;SDS011;59053;50.832;12.882;2022-09-17T18:30:54;3.78;;;1.58;;
70715;SDS011;59053;50.832;12.882;2022-09-17T18:33:22;6.43;;;1.80;;
70715;SDS011;59053;50.832;12.882;2022-09-17T18:35:49;5.35;;;1.80;;
70715;SDS011;59053;50.832;12.882;2022-09-17T18:38:15;6.22;;;1.88;;
70715;SDS011;59053;50.832;12.882;2022-09-17T18:46:50;5.30;;;1.85;;
70715;SDS011;59053;50.832;12.882;2022-09-17T18:49:15;3.60;;;1.70;;
70715;SDS011;59053;50.832;12.882;2022-09-17T18:51:52;6.88;;;1.88;;
70715;SDS011;59053;50.832;12.882;2022-09-17T18:54:17;5.72;;;1.75;;
70715;SDS011;59053;50.832;12.882;2022-09-17T18:56:47;2.57;;;1.40;;
70715;SDS011;59053;50.832;12.882;2022-09-17T18:59:12;3.78;;;1.52;;
70715;SDS011;59053;50.832;12.882;2022-09-17T19:01:39;3.30;;;1.43;;
70715;SDS011;59053;50.832;12.882;2022-09-17T19:04:04;3.40;;;1.40;;
70715;SDS011;59053;50.832;12.882;2022-09-17T19:06:36;3.58;;;1.40;;
70715;SDS011;59053;50.832;12.882;2022-09-17T19:09:03;2.73;;;0.90;;
70715;SDS011;59053;50.832;12.882;2022-09-17T19:11:29;2.28;;;0.90;;
70715;SDS011;59053;50.832;12.882;2022-09-17T19:13:54;2.73;;;0.97;;
70715;SDS011;59053;50.832;12.882;2022-09-17T19:16:19;3.08;;;0.80;;
70715;SDS011;59053;50.832;12.882;2022-09-17T19:18:45;1.60;;;0.90;;
70715;SDS011;59053;50.832;12.882;2022-09-17T19:21:14;1.90;;;0.90;;
70715;SDS011;59053;50.832;12.882;2022-09-17T19:26:39;1.73;;;0.80;;
70715;SDS011;59053;50.832;12.882;2022-09-17T19:29:05;2.30;;;0.90;;
70715;SDS011;59053;50.832;12.882;2022-09-17T19:31:39;2.67;;;1.00;;
70715;SDS011;59053;50.832;12.882;2022-09-17T19:34:06;1.35;;;0.70;;
70715;SDS011;59053;50.832;12.882;2022-09-17T19:36:33;2.22;;;0.80;;
70715;SDS011;59053;50.832;12.882;2022-09-17T19:41:48;2.45;;;0.90;;
70715;SDS011;59053;50.832;12.882;2022-09-17T19:44:14;2.13;;;1.10;;
70715;SDS011;59053;50.832;12.882;2022-09-17T19:46:39;1.77;;;0.77;;
70715;SDS011;59053;50.832;12.882;2022-09-17T19:49:04;4.30;;;1.00;;